sensor_id;sensor_type;location;lat;lon;timestamp;P1;durP1;ratioP1;P2;durP2;ratioP2
74650;SDS011;63169;46.042;14.592;2023-03-21T00:00:19;21.15;;;13.80;;
74650;SDS011;63169;46.042;14.592;2023-03-21T00:02:45;19.48;;;13.23;;
74650;SDS011;63169;46.042;14.592;2023-03-21T00:05:11;18.77;;;12.18;;
74650;SDS011;63169;46.042;14.592;2023-03-21T00:07:36;25.98;;;13.20;;
74650;SDS011;63169;46.042;14.592;2023-03-21T00:10:01;29.60;;;13.90;;
74650;SDS011;63169;46.042;14.592;2023-03-21T00:12:27;30.42;;;14.70;;
74650;SDS011;63169;46.042;14.592;2023-03-21T00:14:56;20.77;;;11.65;;
74650;SDS011;63169;46.042;14.592;2023-03-21T00:17:28;21.83;;;12.30;;
74650;SDS011;63169;46.042;14.592;2023-03-21T00:19:56;22.92;;;11.90;;
74650;SDS011;63169;46.042;14.592;2023-03-21T00:22:25;23.65;;;12.00;;
74650;SDS011;63169;46.042;14.592;2023-03-21T00:24:52;16.33;;;11.15;;
74650;SDS011;63169;46.042;14.592;2023-03-21T00:27:18;19.05;;;10.82;;
74650;SDS011;63169;46.042;14.592;2023-03-21T00:29:44;19.92;;;11.10;;
74650;SDS011;63169;46.042;14.592;2023-03-21T00:32:10;15.45;;;9.65;;
74650;SDS011;63169;46.042;14.592;2023-03-21T00:34:36;14.35;;;9.55;;
74650;SDS011;63169;46.042;14.592;2023-03-21T00:37:02;14.32;;;8.65;;
74650;SDS011;63169;46.042;14.592;2023-03-21T00:39:28;15.40;;;8.07;;
74650;SDS011;63169;46.042;14.592;2023-03-21T00:41:53;12.98;;;7.60;;
74650;SDS011;63169;46.042;14.592;2023-03-21T00:44:19;16.27;;;8.60;;
74650;SDS011;63169;46.042;14.592;2023-03-21T00:46:45;16.10;;;9.75;;
74650;SDS011;63169;46.042;14.592;2023-03-21T00:49:10;15.15;;;9.40;;
74650;SDS011;63169;46.042;14.592;2023-03-21T00:51:36;17.35;;;9.65;;
74650;SDS011;63169;46.042;14.592;2023-03-21T00:54:02;15.82;;;10.43;;
74650;SDS011;63169;46.042;14.592;2023-03-21T00:56:29;23.00;;;13.85;;
74650;SDS011;63169;46.042;14.592;2023-03-21T00:58:55;22.02;;;12.57;;
74650;SDS011;63169;46.042;14.592;2023-03-21T01:01:21;19.25;;;12.85;;
74650;SDS011;63169;46.042;14.592;2023-03-21T01:03:46;26.58;;;13.32;;
74650;SDS011;63169;46.042;14.592;2023-03-21T01:06:28;20.33;;;12.32;;
74650;SDS011;63169;46.042;14.592;2023-03-21T01:08:53;22.38;;;13.40;;
74650;SDS011;63169;46.042;14.592;2023-03-21T01:11:25;22.42;;;13.52;;
74650;SDS011;63169;46.042;14.592;2023-03-21T01:13:52;21.23;;;14.07;;
74650;SDS011;63169;46.042;14.592;2023-03-21T01:16:18;18.08;;;11.98;;
74650;SDS011;63169;46.042;14.592;2023-03-21T01:18:44;19.02;;;11.80;;
74650;SDS011;63169;46.042;14.592;2023-03-21T01:21:10;19.17;;;11.07;;
74650;SDS011;63169;46.042;14.592;2023-03-21T01:23:37;17.88;;;11.35;;
74650;SDS011;63169;46.042;14.592;2023-03-21T01:26:04;19.50;;;11.65;;
74650;SDS011;63169;46.042;14.592;2023-03-21T01:28:29;14.55;;;10.18;;
74650;SDS011;63169;46.042;14.592;2023-03-21T01:30:55;19.48;;;9.25;;
74650;SDS011;63169;46.042;14.592;2023-03-21T01:33:21;16.77;;;9.30;;
74650;SDS011;63169;46.042;14.592;2023-03-21T01:35:47;14.70;;;9.15;;
74650;SDS011;63169;46.042;14.592;2023-03-21T01:38:13;14.25;;;8.07;;
74650;SDS011;63169;46.042;14.592;2023-03-21T01:40:39;17.13;;;9.63;;
74650;SDS011;63169;46.042;14.592;2023-03-21T01:43:14;16.58;;;10.38;;
74650;SDS011;63169;46.042;14.592;2023-03-21T01:51:43;15.68;;;8.75;;
74650;SDS011;63169;46.042;14.592;2023-03-21T01:54:16;15.73;;;10.23;;
74650;SDS011;63169;46.042;14.592;2023-03-21T01:56:48;18.42;;;12.00;;
74650;SDS011;63169;46.042;14.592;2023-03-21T02:01:47;15.50;;;10.55;;
74650;SDS011;63169;46.042;14.592;2023-03-21T02:04:13;14.63;;;9.95;;
74650;SDS011;63169;46.042;14.592;2023-03-21T02:06:42;14.43;;;9.93;;
74650;SDS011;63169;46.042;14.592;2023-03-21T02:09:11;17.00;;;9.98;;
74650;SDS011;63169;46.042;14.592;2023-03-21T02:11:39;17.30;;;9.30;;
74650;SDS011;63169;46.042;14.592;2023-03-21T02:14:04;14.18;;;9.00;;
74650;SDS011;63169;46.042;14.592;2023-03-21T02:27:00;20.10;;;11.80;;
74650;SDS011;63169;46.042;14.592;2023-03-21T02:44:07;15.18;;;8.98;;
74650;SDS011;63169;46.042;14.592;2023-03-21T02:46:54;15.75;;;9.68;;
74650;SDS011;63169;46.042;14.592;2023-03-21T02:51:54;18.13;;;10.38;;
74650;SDS011;63169;46.042;14.592;2023-03-21T02:54:21;17.38;;;10.18;;
74650;SDS011;63169;46.042;14.592;2023-03-21T02:56:48;19.25;;;10.63;;
74650;SDS011;63169;46.042;14.592;2023-03-21T02:59:15;19.42;;;12.15;;
74650;SDS011;63169;46.042;14.592;2023-03-21T03:01:42;21.13;;;11.70;;
74650;SDS011;63169;46.042;14.592;2023-03-21T03:04:20;20.30;;;12.85;;
74650;SDS011;63169;46.042;14.592;2023-03-21T03:12:36;25.05;;;14.43;;
74650;SDS011;63169;46.042;14.592;2023-03-21T03:15:16;23.08;;;14.00;;
74650;SDS011;63169;46.042;14.592;2023-03-21T03:20:42;23.42;;;14.27;;
74650;SDS011;63169;46.042;14.592;2023-03-21T03:28:44;22.15;;;13.30;;
74650;SDS011;63169;46.042;14.592;2023-03-21T03:31:13;20.48;;;12.52;;
74650;SDS011;63169;46.042;14.592;2023-03-21T03:33:45;20.48;;;11.75;;
74650;SDS011;63169;46.042;14.592;2023-03-21T03:36:14;18.10;;;11.40;;
74650;SDS011;63169;46.042;14.592;2023-03-21T03:38:41;17.58;;;11.23;;
74650;SDS011;63169;46.042;14.592;2023-03-21T03:41:16;16.20;;;10.63;;
74650;SDS011;63169;46.042;14.592;2023-03-21T03:43:47;17.33;;;10.85;;
74650;SDS011;63169;46.042;14.592;2023-03-21T03:46:17;15.93;;;10.43;;
74650;SDS011;63169;46.042;14.592;2023-03-21T03:48:48;19.27;;;10.20;;
74650;SDS011;63169;46.042;14.592;2023-03-21T03:51:18;17.17;;;9.18;;
74650;SDS011;63169;46.042;14.592;2023-03-21T03:53:54;17.90;;;11.27;;
74650;SDS011;63169;46.042;14.592;2023-03-21T03:56:21;24.13;;;10.68;;
74650;SDS011;63169;46.042;14.592;2023-03-21T03:58:47;20.92;;;12.60;;
74650;SDS011;63169;46.042;14.592;2023-03-21T04:01:13;20.58;;;12.50;;
74650;SDS011;63169;46.042;14.592;2023-03-21T04:03:39;20.42;;;13.55;;
74650;SDS011;63169;46.042;14.592;2023-03-21T04:06:05;29.63;;;13.38;;
74650;SDS011;63169;46.042;14.592;2023-03-21T04:08:31;22.20;;;13.23;;
74650;SDS011;63169;46.042;14.592;2023-03-21T04:10:56;20.75;;;13.23;;
74650;SDS011;63169;46.042;14.592;2023-03-21T04:13:22;22.83;;;13.45;;
74650;SDS011;63169;46.042;14.592;2023-03-21T04:15:47;20.92;;;12.55;;
74650;SDS011;63169;46.042;14.592;2023-03-21T04:18:13;20.85;;;13.00;;
74650;SDS011;63169;46.042;14.592;2023-03-21T04:20:38;23.70;;;12.63;;
74650;SDS011;63169;46.042;14.592;2023-03-21T04:23:04;21.35;;;12.77;;
74650;SDS011;63169;46.042;14.592;2023-03-21T04:25:32;20.67;;;12.85;;
74650;SDS011;63169;46.042;14.592;2023-03-21T04:28:01;18.15;;;10.73;;
74650;SDS011;63169;46.042;14.592;2023-03-21T04:30:27;21.27;;;12.57;;
74650;SDS011;63169;46.042;14.592;2023-03-21T04:32:52;19.27;;;11.38;;
74650;SDS011;63169;46.042;14.592;2023-03-21T04:35:21;19.75;;;11.73;;
74650;SDS011;63169;46.042;14.592;2023-03-21T04:37:47;19.17;;;11.73;;
74650;SDS011;63169;46.042;14.592;2023-03-21T04:40:13;20.92;;;13.30;;
74650;SDS011;63169;46.042;14.592;2023-03-21T04:42:41;23.45;;;12.77;;
74650;SDS011;63169;46.042;14.592;2023-03-21T04:45:07;21.38;;;12.73;;
74650;SDS011;63169;46.042;14.592;2023-03-21T04:47:33;23.55;;;13.27;;
74650;SDS011;63169;46.042;14.592;2023-03-21T04:49:58;23.58;;;13.73;;
74650;SDS011;63169;46.042;14.592;2023-03-21T04:52:24;22.40;;;12.85;;
74650;SDS011;63169;46.042;14.592;2023-03-21T04:54:49;20.25;;;11.88;;
74650;SDS011;63169;46.042;14.592;2023-03-21T04:57:15;25.88;;;13.23;;
74650;SDS011;63169;46.042;14.592;2023-03-21T04:59:40;23.27;;;13.38;;
74650;SDS011;63169;46.042;14.592;2023-03-21T05:02:06;24.65;;;13.82;;
74650;SDS011;63169;46.042;14.592;2023-03-21T05:04:31;27.63;;;13.02;;
74650;SDS011;63169;46.042;14.592;2023-03-21T05:06:57;27.30;;;14.20;;
74650;SDS011;63169;46.042;14.592;2023-03-21T05:09:23;31.45;;;16.00;;
74650;SDS011;63169;46.042;14.592;2023-03-21T05:11:48;35.47;;;18.45;;
74650;SDS011;63169;46.042;14.592;2023-03-21T05:14:15;32.50;;;16.58;;
74650;SDS011;63169;46.042;14.592;2023-03-21T05:16:43;29.52;;;16.35;;
74650;SDS011;63169;46.042;14.592;2023-03-21T05:19:12;36.90;;;17.35;;
74650;SDS011;63169;46.042;14.592;2023-03-21T05:21:39;30.73;;;15.77;;
74650;SDS011;63169;46.042;14.592;2023-03-21T05:24:13;30.40;;;16.05;;
74650;SDS011;63169;46.042;14.592;2023-03-21T05:26:40;27.33;;;14.02;;
74650;SDS011;63169;46.042;14.592;2023-03-21T05:29:07;29.30;;;14.70;;
74650;SDS011;63169;46.042;14.592;2023-03-21T05:31:32;28.27;;;13.43;;
74650;SDS011;63169;46.042;14.592;2023-03-21T05:33:58;30.02;;;15.02;;
74650;SDS011;63169;46.042;14.592;2023-03-21T05:36:23;28.15;;;15.30;;
74650;SDS011;63169;46.042;14.592;2023-03-21T05:38:49;28.70;;;15.10;;
74650;SDS011;63169;46.042;14.592;2023-03-21T05:41:16;34.75;;;17.95;;
74650;SDS011;63169;46.042;14.592;2023-03-21T05:43:42;34.85;;;18.17;;
74650;SDS011;63169;46.042;14.592;2023-03-21T05:46:07;32.15;;;17.50;;
74650;SDS011;63169;46.042;14.592;2023-03-21T05:48:33;40.20;;;20.63;;
74650;SDS011;63169;46.042;14.592;2023-03-21T05:51:00;32.42;;;17.95;;
74650;SDS011;63169;46.042;14.592;2023-03-21T05:53:26;31.70;;;18.83;;
74650;SDS011;63169;46.042;14.592;2023-03-21T05:55:51;33.28;;;19.30;;
74650;SDS011;63169;46.042;14.592;2023-03-21T05:58:16;36.20;;;19.40;;
74650;SDS011;63169;46.042;14.592;2023-03-21T06:00:42;34.28;;;18.20;;
74650;SDS011;63169;46.042;14.592;2023-03-21T06:03:07;33.72;;;18.00;;
74650;SDS011;63169;46.042;14.592;2023-03-21T06:05:33;30.83;;;18.77;;
74650;SDS011;63169;46.042;14.592;2023-03-21T06:07:58;26.05;;;18.15;;
74650;SDS011;63169;46.042;14.592;2023-03-21T06:10:26;30.10;;;16.38;;
74650;SDS011;63169;46.042;14.592;2023-03-21T06:12:52;28.85;;;16.70;;
74650;SDS011;63169;46.042;14.592;2023-03-21T06:15:17;26.58;;;18.40;;
74650;SDS011;63169;46.042;14.592;2023-03-21T06:17:43;31.00;;;17.33;;
74650;SDS011;63169;46.042;14.592;2023-03-21T06:20:08;28.23;;;17.92;;
74650;SDS011;63169;46.042;14.592;2023-03-21T06:25:01;29.92;;;17.83;;
74650;SDS011;63169;46.042;14.592;2023-03-21T06:27:26;30.48;;;17.85;;
74650;SDS011;63169;46.042;14.592;2023-03-21T06:29:52;33.65;;;22.13;;
74650;SDS011;63169;46.042;14.592;2023-03-21T06:32:17;32.33;;;17.90;;
74650;SDS011;63169;46.042;14.592;2023-03-21T06:34:43;30.40;;;19.58;;
74650;SDS011;63169;46.042;14.592;2023-03-21T06:37:08;29.83;;;19.13;;
74650;SDS011;63169;46.042;14.592;2023-03-21T06:39:34;34.55;;;20.33;;
74650;SDS011;63169;46.042;14.592;2023-03-21T06:41:59;35.85;;;20.42;;
74650;SDS011;63169;46.042;14.592;2023-03-21T06:44:25;37.55;;;20.92;;
74650;SDS011;63169;46.042;14.592;2023-03-21T06:46:51;60.88;;;27.52;;
74650;SDS011;63169;46.042;14.592;2023-03-21T06:49:17;50.20;;;25.98;;
74650;SDS011;63169;46.042;14.592;2023-03-21T06:51:42;52.50;;;24.00;;
74650;SDS011;63169;46.042;14.592;2023-03-21T06:54:08;45.53;;;23.73;;
74650;SDS011;63169;46.042;14.592;2023-03-21T06:56:34;42.15;;;21.92;;
74650;SDS011;63169;46.042;14.592;2023-03-21T06:58:59;38.85;;;19.70;;
74650;SDS011;63169;46.042;14.592;2023-03-21T07:01:26;40.38;;;22.13;;
74650;SDS011;63169;46.042;14.592;2023-03-21T07:03:52;37.47;;;21.52;;
74650;SDS011;63169;46.042;14.592;2023-03-21T07:06:18;37.40;;;18.95;;
74650;SDS011;63169;46.042;14.592;2023-03-21T07:08:43;34.67;;;20.58;;
74650;SDS011;63169;46.042;14.592;2023-03-21T07:11:11;35.78;;;20.33;;
74650;SDS011;63169;46.042;14.592;2023-03-21T07:13:37;37.08;;;20.23;;
74650;SDS011;63169;46.042;14.592;2023-03-21T07:16:03;39.97;;;22.50;;
74650;SDS011;63169;46.042;14.592;2023-03-21T07:18:28;52.58;;;26.40;;
74650;SDS011;63169;46.042;14.592;2023-03-21T07:20:55;115.00;;;52.72;;
74650;SDS011;63169;46.042;14.592;2023-03-21T07:23:21;43.92;;;23.50;;
74650;SDS011;63169;46.042;14.592;2023-03-21T07:25:48;68.97;;;42.35;;
74650;SDS011;63169;46.042;14.592;2023-03-21T07:28:14;42.33;;;23.38;;
74650;SDS011;63169;46.042;14.592;2023-03-21T07:30:40;35.63;;;22.55;;
74650;SDS011;63169;46.042;14.592;2023-03-21T07:33:06;48.28;;;26.73;;
74650;SDS011;63169;46.042;14.592;2023-03-21T07:35:32;45.85;;;24.42;;
74650;SDS011;63169;46.042;14.592;2023-03-21T07:37:58;36.53;;;22.30;;
74650;SDS011;63169;46.042;14.592;2023-03-21T07:40:23;36.58;;;21.33;;
74650;SDS011;63169;46.042;14.592;2023-03-21T07:42:49;35.95;;;21.23;;
74650;SDS011;63169;46.042;14.592;2023-03-21T07:45:15;41.20;;;22.08;;
74650;SDS011;63169;46.042;14.592;2023-03-21T07:47:45;40.88;;;21.67;;
74650;SDS011;63169;46.042;14.592;2023-03-21T07:50:11;43.15;;;23.55;;
74650;SDS011;63169;46.042;14.592;2023-03-21T07:52:36;47.42;;;26.77;;
74650;SDS011;63169;46.042;14.592;2023-03-21T07:55:02;43.03;;;22.17;;
74650;SDS011;63169;46.042;14.592;2023-03-21T07:57:28;54.75;;;26.55;;
74650;SDS011;63169;46.042;14.592;2023-03-21T07:59:53;52.30;;;26.88;;
74650;SDS011;63169;46.042;14.592;2023-03-21T08:02:18;61.70;;;26.92;;
74650;SDS011;63169;46.042;14.592;2023-03-21T08:04:44;54.28;;;26.08;;
74650;SDS011;63169;46.042;14.592;2023-03-21T08:07:10;46.92;;;25.85;;
74650;SDS011;63169;46.042;14.592;2023-03-21T08:09:35;53.97;;;25.58;;
74650;SDS011;63169;46.042;14.592;2023-03-21T08:12:01;39.30;;;23.35;;
74650;SDS011;63169;46.042;14.592;2023-03-21T08:14:27;41.17;;;23.65;;
74650;SDS011;63169;46.042;14.592;2023-03-21T08:16:52;33.97;;;21.05;;
74650;SDS011;63169;46.042;14.592;2023-03-21T08:19:18;29.70;;;19.13;;
74650;SDS011;63169;46.042;14.592;2023-03-21T08:21:45;32.20;;;19.88;;
74650;SDS011;63169;46.042;14.592;2023-03-21T08:24:14;33.00;;;20.08;;
74650;SDS011;63169;46.042;14.592;2023-03-21T08:26:40;29.35;;;20.85;;
74650;SDS011;63169;46.042;14.592;2023-03-21T08:29:06;29.17;;;20.58;;
74650;SDS011;63169;46.042;14.592;2023-03-21T08:31:32;28.88;;;19.42;;
74650;SDS011;63169;46.042;14.592;2023-03-21T08:33:57;26.17;;;16.63;;
74650;SDS011;63169;46.042;14.592;2023-03-21T08:36:23;26.92;;;17.15;;
74650;SDS011;63169;46.042;14.592;2023-03-21T08:38:49;26.67;;;16.83;;
74650;SDS011;63169;46.042;14.592;2023-03-21T08:41:18;27.40;;;17.23;;
74650;SDS011;63169;46.042;14.592;2023-03-21T08:43:46;28.25;;;17.27;;
74650;SDS011;63169;46.042;14.592;2023-03-21T08:46:12;27.42;;;16.77;;
74650;SDS011;63169;46.042;14.592;2023-03-21T08:48:38;24.40;;;17.58;;
74650;SDS011;63169;46.042;14.592;2023-03-21T08:51:04;27.20;;;16.63;;
74650;SDS011;63169;46.042;14.592;2023-03-21T08:53:30;23.95;;;16.00;;
74650;SDS011;63169;46.042;14.592;2023-03-21T08:55:56;24.52;;;16.80;;
74650;SDS011;63169;46.042;14.592;2023-03-21T08:58:21;25.42;;;15.85;;
74650;SDS011;63169;46.042;14.592;2023-03-21T09:00:47;25.35;;;16.17;;
74650;SDS011;63169;46.042;14.592;2023-03-21T09:03:12;27.10;;;15.15;;
74650;SDS011;63169;46.042;14.592;2023-03-21T09:05:40;24.58;;;15.93;;
74650;SDS011;63169;46.042;14.592;2023-03-21T09:08:06;19.92;;;14.55;;
74650;SDS011;63169;46.042;14.592;2023-03-21T09:10:31;22.20;;;14.98;;
74650;SDS011;63169;46.042;14.592;2023-03-21T09:12:57;23.30;;;12.80;;
74650;SDS011;63169;46.042;14.592;2023-03-21T09:15:24;28.17;;;12.32;;
74650;SDS011;63169;46.042;14.592;2023-03-21T09:17:52;21.77;;;13.15;;
74650;SDS011;63169;46.042;14.592;2023-03-21T09:20:20;19.90;;;13.98;;
74650;SDS011;63169;46.042;14.592;2023-03-21T09:22:50;22.55;;;13.10;;
74650;SDS011;63169;46.042;14.592;2023-03-21T09:25:16;17.88;;;12.77;;
74650;SDS011;63169;46.042;14.592;2023-03-21T09:27:42;23.50;;;13.40;;
74650;SDS011;63169;46.042;14.592;2023-03-21T09:30:12;19.08;;;13.65;;
74650;SDS011;63169;46.042;14.592;2023-03-21T09:32:40;18.50;;;11.23;;
74650;SDS011;63169;46.042;14.592;2023-03-21T09:35:06;27.48;;;11.38;;
74650;SDS011;63169;46.042;14.592;2023-03-21T09:37:32;15.82;;;11.38;;
74650;SDS011;63169;46.042;14.592;2023-03-21T09:39:58;15.70;;;10.48;;
74650;SDS011;63169;46.042;14.592;2023-03-21T09:42:30;26.50;;;13.02;;
74650;SDS011;63169;46.042;14.592;2023-03-21T09:47:48;14.85;;;10.27;;
74650;SDS011;63169;46.042;14.592;2023-03-21T09:50:22;25.48;;;14.57;;
74650;SDS011;63169;46.042;14.592;2023-03-21T09:53:03;32.80;;;17.00;;
74650;SDS011;63169;46.042;14.592;2023-03-21T09:55:33;28.90;;;15.80;;
74650;SDS011;63169;46.042;14.592;2023-03-21T09:58:02;23.45;;;13.80;;
74650;SDS011;63169;46.042;14.592;2023-03-21T10:00:33;16.27;;;11.07;;
74650;SDS011;63169;46.042;14.592;2023-03-21T10:03:05;16.58;;;10.98;;
74650;SDS011;63169;46.042;14.592;2023-03-21T10:05:35;17.67;;;11.88;;
74650;SDS011;63169;46.042;14.592;2023-03-21T10:08:08;23.33;;;12.40;;
74650;SDS011;63169;46.042;14.592;2023-03-21T10:11:05;20.40;;;10.73;;
74650;SDS011;63169;46.042;14.592;2023-03-21T10:13:38;20.42;;;11.57;;
74650;SDS011;63169;46.042;14.592;2023-03-21T10:16:15;17.90;;;11.27;;
74650;SDS011;63169;46.042;14.592;2023-03-21T10:18:43;17.40;;;12.00;;
74650;SDS011;63169;46.042;14.592;2023-03-21T10:21:12;17.75;;;10.55;;
74650;SDS011;63169;46.042;14.592;2023-03-21T10:23:42;20.15;;;11.38;;
74650;SDS011;63169;46.042;14.592;2023-03-21T10:26:08;19.17;;;12.05;;
74650;SDS011;63169;46.042;14.592;2023-03-21T10:28:37;16.13;;;12.85;;
74650;SDS011;63169;46.042;14.592;2023-03-21T10:31:07;14.50;;;10.85;;
74650;SDS011;63169;46.042;14.592;2023-03-21T10:33:37;15.32;;;10.80;;
74650;SDS011;63169;46.042;14.592;2023-03-21T10:36:06;31.75;;;13.05;;
74650;SDS011;63169;46.042;14.592;2023-03-21T10:38:33;18.75;;;11.18;;
74650;SDS011;63169;46.042;14.592;2023-03-21T10:41:02;17.00;;;11.05;;
74650;SDS011;63169;46.042;14.592;2023-03-21T10:45:58;19.98;;;11.43;;
74650;SDS011;63169;46.042;14.592;2023-03-21T10:50:58;15.88;;;10.85;;
74650;SDS011;63169;46.042;14.592;2023-03-21T10:53:28;22.55;;;12.38;;
74650;SDS011;63169;46.042;14.592;2023-03-21T10:55:59;17.58;;;11.23;;
74650;SDS011;63169;46.042;14.592;2023-03-21T10:58:26;25.58;;;10.93;;
74650;SDS011;63169;46.042;14.592;2023-03-21T11:00:54;15.07;;;9.77;;
74650;SDS011;63169;46.042;14.592;2023-03-21T11:03:37;13.90;;;9.15;;
74650;SDS011;63169;46.042;14.592;2023-03-21T11:06:10;16.15;;;10.07;;
74650;SDS011;63169;46.042;14.592;2023-03-21T11:08:46;15.82;;;9.55;;
74650;SDS011;63169;46.042;14.592;2023-03-21T11:11:36;16.42;;;9.52;;
74650;SDS011;63169;46.042;14.592;2023-03-21T11:14:04;13.38;;;8.13;;
74650;SDS011;63169;46.042;14.592;2023-03-21T11:19:01;15.23;;;8.75;;
74650;SDS011;63169;46.042;14.592;2023-03-21T11:21:33;14.38;;;8.35;;
74650;SDS011;63169;46.042;14.592;2023-03-21T11:24:00;14.18;;;8.30;;
74650;SDS011;63169;46.042;14.592;2023-03-21T11:28:54;14.15;;;9.32;;
74650;SDS011;63169;46.042;14.592;2023-03-21T11:31:20;15.48;;;8.90;;
74650;SDS011;63169;46.042;14.592;2023-03-21T11:33:54;15.20;;;7.93;;
74650;SDS011;63169;46.042;14.592;2023-03-21T11:36:26;13.50;;;8.23;;
74650;SDS011;63169;46.042;14.592;2023-03-21T11:38:58;14.10;;;7.53;;
74650;SDS011;63169;46.042;14.592;2023-03-21T11:41:46;11.73;;;8.55;;
74650;SDS011;63169;46.042;14.592;2023-03-21T11:44:26;15.85;;;6.95;;
74650;SDS011;63169;46.042;14.592;2023-03-21T11:46:56;14.52;;;6.68;;
74650;SDS011;63169;46.042;14.592;2023-03-21T11:49:22;11.95;;;5.88;;
74650;SDS011;63169;46.042;14.592;2023-03-21T11:57:24;8.88;;;5.70;;
74650;SDS011;63169;46.042;14.592;2023-03-21T12:00:16;10.88;;;5.43;;
74650;SDS011;63169;46.042;14.592;2023-03-21T12:18:13;9.13;;;6.15;;
74650;SDS011;63169;46.042;14.592;2023-03-21T12:20:52;10.50;;;5.65;;
74650;SDS011;63169;46.042;14.592;2023-03-21T12:26:22;19.02;;;5.68;;
74650;SDS011;63169;46.042;14.592;2023-03-21T12:37:32;18.73;;;5.05;;
74650;SDS011;63169;46.042;14.592;2023-03-21T12:40:09;11.32;;;4.85;;
74650;SDS011;63169;46.042;14.592;2023-03-21T12:42:45;7.95;;;3.85;;
74650;SDS011;63169;46.042;14.592;2023-03-21T12:45:21;6.40;;;4.13;;
74650;SDS011;63169;46.042;14.592;2023-03-21T12:47:59;7.15;;;3.42;;
74650;SDS011;63169;46.042;14.592;2023-03-21T12:50:46;7.30;;;3.22;;
74650;SDS011;63169;46.042;14.592;2023-03-21T12:53:38;6.78;;;4.28;;
74650;SDS011;63169;46.042;14.592;2023-03-21T12:56:08;11.32;;;6.60;;
74650;SDS011;63169;46.042;14.592;2023-03-21T12:58:40;9.25;;;3.42;;
74650;SDS011;63169;46.042;14.592;2023-03-21T13:01:09;7.10;;;3.85;;
74650;SDS011;63169;46.042;14.592;2023-03-21T13:03:43;6.32;;;2.88;;
74650;SDS011;63169;46.042;14.592;2023-03-21T13:06:15;8.32;;;3.80;;
74650;SDS011;63169;46.042;14.592;2023-03-21T13:11:36;10.95;;;3.10;;
74650;SDS011;63169;46.042;14.592;2023-03-21T13:14:05;9.18;;;3.33;;
74650;SDS011;63169;46.042;14.592;2023-03-21T13:27:06;7.13;;;3.33;;
74650;SDS011;63169;46.042;14.592;2023-03-21T13:29:48;5.13;;;3.05;;
74650;SDS011;63169;46.042;14.592;2023-03-21T13:34:44;5.63;;;2.80;;
74650;SDS011;63169;46.042;14.592;2023-03-21T13:37:12;6.38;;;3.30;;
74650;SDS011;63169;46.042;14.592;2023-03-21T13:39:44;4.78;;;1.52;;
74650;SDS011;63169;46.042;14.592;2023-03-21T13:42:11;5.55;;;2.13;;
74650;SDS011;63169;46.042;14.592;2023-03-21T13:44:47;3.97;;;1.63;;
74650;SDS011;63169;46.042;14.592;2023-03-21T13:50:19;5.00;;;1.95;;
74650;SDS011;63169;46.042;14.592;2023-03-21T13:55:43;9.13;;;2.88;;
74650;SDS011;63169;46.042;14.592;2023-03-21T13:58:23;7.80;;;1.98;;
74650;SDS011;63169;46.042;14.592;2023-03-21T14:01:07;29.58;;;5.68;;
74650;SDS011;63169;46.042;14.592;2023-03-21T14:03:46;21.02;;;3.13;;
74650;SDS011;63169;46.042;14.592;2023-03-21T14:06:11;11.27;;;2.58;;
74650;SDS011;63169;46.042;14.592;2023-03-21T14:08:38;12.50;;;2.67;;
74650;SDS011;63169;46.042;14.592;2023-03-21T14:11:06;9.48;;;2.00;;
74650;SDS011;63169;46.042;14.592;2023-03-21T14:13:35;17.00;;;3.75;;
74650;SDS011;63169;46.042;14.592;2023-03-21T14:16:05;6.43;;;2.22;;
74650;SDS011;63169;46.042;14.592;2023-03-21T14:18:39;5.25;;;2.13;;
74650;SDS011;63169;46.042;14.592;2023-03-21T14:21:12;3.70;;;1.55;;
74650;SDS011;63169;46.042;14.592;2023-03-21T14:23:39;4.30;;;2.33;;
74650;SDS011;63169;46.042;14.592;2023-03-21T14:26:04;4.40;;;1.83;;
74650;SDS011;63169;46.042;14.592;2023-03-21T14:28:30;5.70;;;2.10;;
74650;SDS011;63169;46.042;14.592;2023-03-21T14:31:00;5.50;;;1.75;;
74650;SDS011;63169;46.042;14.592;2023-03-21T14:35:51;3.30;;;1.10;;
74650;SDS011;63169;46.042;14.592;2023-03-21T14:38:24;6.05;;;1.60;;
74650;SDS011;63169;46.042;14.592;2023-03-21T14:40:52;4.22;;;1.10;;
74650;SDS011;63169;46.042;14.592;2023-03-21T14:43:20;3.95;;;1.42;;
74650;SDS011;63169;46.042;14.592;2023-03-21T14:45:46;2.75;;;1.50;;
74650;SDS011;63169;46.042;14.592;2023-03-21T14:48:13;5.30;;;1.52;;
74650;SDS011;63169;46.042;14.592;2023-03-21T14:50:48;6.68;;;2.15;;
74650;SDS011;63169;46.042;14.592;2023-03-21T14:53:28;3.75;;;0.73;;
74650;SDS011;63169;46.042;14.592;2023-03-21T14:56:00;3.63;;;1.98;;
74650;SDS011;63169;46.042;14.592;2023-03-21T14:58:30;3.08;;;1.23;;
74650;SDS011;63169;46.042;14.592;2023-03-21T15:00:57;3.10;;;2.08;;
74650;SDS011;63169;46.042;14.592;2023-03-21T15:03:26;3.67;;;1.27;;
74650;SDS011;63169;46.042;14.592;2023-03-21T15:05:52;15.45;;;2.63;;
74650;SDS011;63169;46.042;14.592;2023-03-21T15:08:19;10.43;;;4.72;;
74650;SDS011;63169;46.042;14.592;2023-03-21T15:13:24;5.75;;;2.85;;
74650;SDS011;63169;46.042;14.592;2023-03-21T15:15:54;4.43;;;1.92;;
74650;SDS011;63169;46.042;14.592;2023-03-21T15:18:33;8.90;;;2.38;;
74650;SDS011;63169;46.042;14.592;2023-03-21T15:21:04;15.70;;;1.98;;
74650;SDS011;63169;46.042;14.592;2023-03-21T15:23:34;2.42;;;0.90;;
74650;SDS011;63169;46.042;14.592;2023-03-21T15:26:04;3.25;;;0.95;;
74650;SDS011;63169;46.042;14.592;2023-03-21T15:28:31;3.38;;;0.70;;
74650;SDS011;63169;46.042;14.592;2023-03-21T15:30:57;2.85;;;0.70;;
74650;SDS011;63169;46.042;14.592;2023-03-21T15:33:23;5.53;;;1.33;;
74650;SDS011;63169;46.042;14.592;2023-03-21T15:35:50;2.67;;;0.88;;
74650;SDS011;63169;46.042;14.592;2023-03-21T15:38:31;4.70;;;1.20;;
74650;SDS011;63169;46.042;14.592;2023-03-21T15:41:14;5.25;;;1.25;;
74650;SDS011;63169;46.042;14.592;2023-03-21T15:51:58;5.40;;;1.20;;
74650;SDS011;63169;46.042;14.592;2023-03-21T15:54:30;4.68;;;1.70;;
74650;SDS011;63169;46.042;14.592;2023-03-21T15:57:04;4.72;;;1.60;;
74650;SDS011;63169;46.042;14.592;2023-03-21T15:59:49;3.95;;;1.30;;
74650;SDS011;63169;46.042;14.592;2023-03-21T16:02:20;5.95;;;2.47;;
74650;SDS011;63169;46.042;14.592;2023-03-21T16:05:22;11.35;;;3.53;;
74650;SDS011;63169;46.042;14.592;2023-03-21T16:07:51;4.72;;;1.88;;
74650;SDS011;63169;46.042;14.592;2023-03-21T16:10:28;3.33;;;1.38;;
74650;SDS011;63169;46.042;14.592;2023-03-21T16:12:56;3.83;;;1.42;;
74650;SDS011;63169;46.042;14.592;2023-03-21T16:15:22;22.15;;;8.98;;
74650;SDS011;63169;46.042;14.592;2023-03-21T16:17:50;98.95;;;28.80;;
74650;SDS011;63169;46.042;14.592;2023-03-21T16:20:19;48.20;;;14.13;;
74650;SDS011;63169;46.042;14.592;2023-03-21T16:22:47;32.53;;;11.85;;
74650;SDS011;63169;46.042;14.592;2023-03-21T16:25:12;28.40;;;9.88;;
74650;SDS011;63169;46.042;14.592;2023-03-21T16:27:38;24.35;;;9.55;;
74650;SDS011;63169;46.042;14.592;2023-03-21T16:30:04;17.48;;;6.95;;
74650;SDS011;63169;46.042;14.592;2023-03-21T16:32:32;11.63;;;4.28;;
74650;SDS011;63169;46.042;14.592;2023-03-21T16:34:58;6.68;;;2.28;;
74650;SDS011;63169;46.042;14.592;2023-03-21T16:37:25;8.07;;;1.55;;